Time;durP1;ratioP1;P1;durP2;ratioP2;P2;SDS_P1;SDS_P2;PMS_P1;PMS_P2;Temp;Humidity;BMP_temperature;BMP_pressure;BME280_temperature;BME280_humidity;BME280_pressure;Samples;Min_cycle;Max_cycle;Signal;HPM_P1;HPM_P2
2022/10/30 00:00:33;;;;;;;4.63;2.55;;;;;;;19.96;59.51;97403.66;10350769;28;20494;-55
2022/10/30 00:06:10;;;;;;;3.00;2.72;;;;;;;19.94;59.58;97393.16;10338719;28;20422;-54
2022/10/30 00:11:30;;;;;;;2.55;2.35;;;;;;;19.95;59.56;97402.03;10344764;28;20116;-55
2022/10/30 00:16:49;;;;;;;2.50;2.30;;;;;;;19.94;59.55;97393.16;10338538;28;20062;-54
2022/10/30 00:22:09;;;;;;;2.40;2.20;;;;;;;19.95;59.67;97404.75;10351744;28;20517;-54
2022/10/30 00:27:30;;;;;;;3.30;2.50;;;;;;;19.93;59.34;97396.97;10338716;28;20129;-54
2022/10/30 00:32:49;;;;;;;2.53;2.33;;;;;;;19.93;59.56;97402.38;10338525;28;20077;-55
2022/10/30 00:38:09;;;;;;;2.70;2.50;;;;;;;19.92;59.63;97389.16;10337764;28;20062;-55
2022/10/30 00:43:38;;;;;;;3.80;2.47;;;;;;;19.92;59.64;97389.97;10377205;28;20160;-54
2022/10/30 00:49:16;;;;;;;2.67;2.47;;;;;;;19.92;59.52;97387.25;10339126;28;20062;-54
2022/10/30 00:54:36;;;;;;;2.27;2.07;;;;;;;19.91;59.59;97382.94;10335700;28;20495;-54
2022/10/30 00:59:56;;;;;;;2.80;2.38;;;;;;;19.90;59.65;97386.78;10336512;28;20525;-54
2022/10/30 01:05:18;;;;;;;2.92;2.63;;;;;;;19.91;59.58;97376.75;10336703;28;20506;-54
2022/10/30 01:10:38;;;;;;;2.80;2.38;;;;;;;19.90;59.62;97378.66;10334900;28;20109;-54
2022/10/30 01:16:20;;;;;;;2.35;2.15;;;;;;;19.89;59.68;97366.22;10336892;28;20065;-54
2022/10/30 01:21:52;;;;;;;2.92;2.50;;;;;;;19.89;59.52;97362.75;10322069;28;20121;-54
2022/10/30 01:27:15;;;;;;;2.83;2.35;;;;;;;19.88;59.61;97356.53;10336472;28;20069;-54
2022/10/30 01:32:45;;;;;;;2.58;2.28;;;;;;;19.89;59.62;97365.44;10321506;28;20058;-55
2022/10/30 01:38:22;;;;;;;2.70;2.20;;;;;;;19.87;59.61;97352.22;10348805;28;20125;-55
2022/10/30 01:43:47;;;;;;;2.88;2.40;;;;;;;19.86;59.62;97356.06;10294606;28;20122;-54
2022/10/30 01:49:30;;;;;;;2.92;2.40;;;;;;;19.86;59.74;97347.94;10280562;28;20383;-54
2022/10/30 01:55:09;;;;;;;2.67;2.38;;;;;;;19.85;59.55;97345.53;10287984;28;20054;-54
2022/10/30 02:00:31;;;;;;;2.50;2.30;;;;;;;19.85;59.67;97348.25;10320765;28;20050;-62
2022/10/30 02:05:51;;;;;;;2.67;2.10;;;;;;;19.84;59.58;97339.34;10347830;28;20054;-61
2022/10/30 02:11:12;;;;;;;3.28;2.33;;;;;;;19.83;59.61;97336.94;10333104;28;20170;-62
2022/10/30 02:16:38;;;;;;;3.13;2.28;;;;;;;19.83;59.64;97337.75;10333543;28;20062;-62
2022/10/30 02:21:58;;;;;;;2.60;2.28;;;;;;;19.83;59.51;97331.53;10347202;28;20133;-62
2022/10/30 02:27:17;;;;;;;2.47;2.22;;;;;;;19.82;59.59;97330.75;10319528;28;20062;-62
2022/10/30 02:32:37;;;;;;;3.13;2.20;;;;;;;19.82;59.65;97341.56;10333907;28;20054;-61
2022/10/30 02:37:57;;;;;;;2.53;2.15;;;;;;;19.81;59.61;97333.78;10346490;28;20050;-62
2022/10/30 02:43:18;;;;;;;2.20;2.00;;;;;;;19.81;59.64;97345.38;10369395;28;20124;-62
2022/10/30 02:48:38;;;;;;;2.30;2.10;;;;;;;19.79;59.63;97342.19;10336928;28;20089;-62
2022/10/30 02:53:58;;;;;;;3.03;2.30;;;;;;;19.79;59.49;97336.78;10318426;28;20058;-61
2022/10/30 02:59:19;;;;;;;2.10;1.95;;;;;;;19.78;59.56;97329.78;10317947;28;20524;-61
2022/10/30 03:04:40;;;;;;;2.65;2.22;;;;;;;19.78;59.56;97324.38;10318816;28;20058;-62
2022/10/30 03:09:59;;;;;;;2.50;2.30;;;;;;;19.79;59.54;97336.00;10332687;28;20063;-62
2022/10/30 03:15:19;;;;;;;2.20;2.00;;;;;;;19.76;59.54;97342.81;10318268;28;20234;-61
2022/10/30 03:20:39;;;;;;;2.67;2.30;;;;;;;19.76;59.56;97337.41;10332169;28;20061;-62
2022/10/30 03:25:59;;;;;;;2.45;2.25;;;;;;;19.75;59.54;97343.91;10332679;28;20059;-62
2022/10/30 03:31:18;;;;;;;3.30;2.38;;;;;;;19.75;59.63;97352.03;10317943;28;20077;-62
2022/10/30 03:36:39;;;;;;;2.53;2.10;;;;;;;19.75;59.63;97346.63;10325845;28;20061;-62
2022/10/30 03:41:58;;;;;;;2.33;2.13;;;;;;;19.74;59.69;97336.94;10367135;28;20050;-61
2022/10/30 03:47:18;;;;;;;2.15;2.00;;;;;;;19.74;59.67;97334.22;10340171;28;20556;-62
2022/10/30 03:52:38;;;;;;;1.92;1.83;;;;;;;19.73;59.65;97333.41;10339752;28;20051;-62
2022/10/30 03:57:58;;;;;;;2.40;2.20;;;;;;;19.73;59.53;97329.91;10339847;28;20055;-62
2022/10/30 04:03:17;;;;;;;2.20;2.00;;;;;;;19.72;59.64;97331.03;10339653;28;20133;-61
2022/10/30 04:08:36;;;;;;;2.33;2.00;;;;;;;19.72;59.62;97339.16;10324742;28;20054;-62
2022/10/30 04:13:56;;;;;;;2.17;1.90;;;;;;;19.71;59.66;97340.22;10324517;28;20087;-62
2022/10/30 04:19:15;;;;;;;2.40;2.20;;;;;;;19.70;59.63;97338.63;10338478;28;20055;-62
2022/10/30 04:24:38;;;;;;;2.28;2.08;;;;;;;19.70;59.68;97333.22;10337176;28;20062;-62
2022/10/30 04:29:57;;;;;;;2.65;2.13;;;;;;;19.69;59.54;97335.13;10336689;28;20046;-61
2022/10/30 04:35:19;;;;;;;2.50;2.30;;;;;;;19.68;59.68;97336.25;10323752;28;20069;-61
2022/10/30 04:40:40;;;;;;;2.33;2.13;;;;;;;19.68;59.57;97324.63;10336449;28;20054;-62
2022/10/30 04:46:04;;;;;;;2.92;2.10;;;;;;;19.67;59.69;97323.81;10335277;28;20129;-62
2022/10/30 04:51:24;;;;;;;2.42;2.22;;;;;;;19.67;59.66;97320.34;10337824;28;20054;-61
2022/10/30 04:56:44;;;;;;;2.40;2.20;;;;;;;19.66;59.64;97316.84;10335842;28;20053;-61
2022/10/30 05:02:04;;;;;;;2.83;2.10;;;;;;;19.66;59.64;97316.00;10322839;28;20054;-61
2022/10/30 05:07:23;;;;;;;2.42;2.20;;;;;;;19.65;59.71;97307.13;10322665;28;20066;-61
2022/10/30 05:12:43;;;;;;;3.22;2.28;;;;;;;19.64;59.60;97302.03;10336380;28;20055;-62
2022/10/30 05:18:04;;;;;;;2.38;2.17;;;;;;;19.65;59.57;97300.94;10322181;28;20066;-62
2022/10/30 05:23:24;;;;;;;2.50;2.30;;;;;;;19.62;59.62;97288.84;10335731;28;20055;-60
2022/10/30 05:28:44;;;;;;;2.45;2.10;;;;;;;19.62;59.59;97288.03;10348418;28;20518;-62
2022/10/30 05:34:04;;;;;;;2.00;1.85;;;;;;;19.62;59.62;97301.53;10335696;28;20433;-62
2022/10/30 05:39:23;;;;;;;2.40;2.15;;;;;;;19.62;59.68;97298.84;10326942;28;20054;-62
2022/10/30 05:44:44;;;;;;;2.20;2.00;;;;;;;19.61;59.80;97308.06;10335684;28;20420;-62
2022/10/30 05:50:04;;;;;;;2.30;2.10;;;;;;;19.61;59.74;97313.47;10295329;28;20138;-61
2022/10/30 05:55:24;;;;;;;2.30;2.00;;;;;;;19.61;59.67;97302.66;10280277;28;20065;-62
2022/10/30 06:01:04;;;;;;;2.08;1.98;;;;;;;19.60;59.60;97312.69;10294045;28;20062;-62
2022/10/30 06:06:32;;;;;;;2.40;2.20;;;;;;;19.59;59.70;97311.06;10293923;28;20117;-61
2022/10/30 06:11:52;;;;;;;2.40;2.20;;;;;;;19.58;59.82;97317.56;10293797;28;20058;-61
2022/10/30 06:17:17;;;;;;;2.40;2.20;;;;;;;19.58;59.71;97317.56;10293450;28;20062;-62
2022/10/30 06:23:04;;;;;;;2.30;2.10;;;;;;;19.58;59.70;97319.50;10306893;28;20058;-62
2022/10/30 06:28:34;;;;;;;2.30;2.10;;;;;;;19.55;59.76;97321.72;10292199;28;20063;-61
2022/10/30 06:33:54;;;;;;;2.20;2.00;;;;;;;19.56;59.79;97328.72;10292360;28;20460;-62
2022/10/30 06:39:13;;;;;;;1.92;1.83;;;;;;;19.55;59.60;97337.91;10323547;28;20066;-61
2022/10/30 06:44:42;;;;;;;;;;;;;;;19.54;59.73;97344.44;10369998;28;20058;-61
2022/10/30 06:50:02;;;;;;;3.80;2.30;;;;;;;19.55;59.74;97346.03;10332473;28;19921;-62
2022/10/30 06:55:23;;;;;;;2.20;2.00;;;;;;;19.54;59.69;97338.22;10331759;28;20494;-62
2022/10/30 07:01:02;;;;;;;2.35;2.15;;;;;;;19.55;59.70;97340.63;10333207;28;20062;-62
2022/10/30 07:06:41;;;;;;;2.63;2.25;;;;;;;19.54;59.67;97346.34;10332411;28;20108;-61
2022/10/30 07:12:01;;;;;;;2.90;2.10;;;;;;;19.54;59.75;97336.34;10336943;28;20058;-62
2022/10/30 07:17:39;;;;;;;2.20;2.00;;;;;;;19.54;59.72;97341.75;10332836;28;20059;-62
2022/10/30 07:23:06;;;;;;;3.08;2.20;;;;;;;19.55;59.72;97335.22;10317987;28;20065;-61
2022/10/30 07:28:26;;;;;;;2.20;2.00;;;;;;;19.55;59.83;97332.50;10330728;28;20076;-61
2022/10/30 07:34:04;;;;;;;2.10;1.90;;;;;;;19.56;59.82;97346.81;10331623;28;20104;-62
2022/10/30 07:39:39;;;;;;;2.40;2.20;;;;;;;19.56;59.81;97347.63;10338490;28;20053;-62
2022/10/30 07:45:20;;;;;;;2.42;2.00;;;;;;;19.56;59.86;97349.53;10363617;28;20062;-62
2022/10/30 07:51:08;;;;;;;2.20;1.98;;;;;;;19.56;59.82;97355.75;10272544;28;20062;-62
2022/10/30 07:56:28;;;;;;;4.00;2.30;;;;;;;19.55;59.86;97364.94;10332215;28;20063;-61
2022/10/30 08:01:48;;;;;;;2.22;2.00;;;;;;;19.57;60.03;97353.84;10331488;28;20053;-62
2022/10/30 08:07:31;;;;;;;2.30;2.10;;;;;;;19.56;59.95;97342.22;10317665;28;20133;-61
2022/10/30 08:12:51;;;;;;;3.03;2.20;;;;;;;19.58;60.00;97341.91;10330391;28;20569;-61
2022/10/30 08:18:11;;;;;;;1.98;1.85;;;;;;;19.60;59.98;97333.47;10332587;28;20089;-62
2022/10/30 08:23:33;;;;;;;5.78;2.95;;;;;;;19.60;59.92;97344.28;10324790;28;20413;-62
2022/10/30 08:28:58;;;;;;;1.90;1.80;;;;;;;19.61;59.92;97343.19;10324591;28;20054;-62
2022/10/30 08:34:19;;;;;;;2.50;2.20;;;;;;;19.62;59.92;97352.88;10324258;28;20093;-62
2022/10/30 08:39:42;;;;;;;2.03;1.80;;;;;;;19.62;59.97;97352.88;10345117;28;20057;-62
2022/10/30 08:45:23;;;;;;;2.33;1.90;;;;;;;19.63;59.93;97349.88;10366951;28;20062;-61
2022/10/30 08:51:09;;;;;;;2.00;1.80;;;;;;;19.65;60.08;97344.16;10338185;28;20062;-62
2022/10/30 08:56:35;;;;;;;2.95;2.20;;;;;;;19.67;60.13;97344.66;10323382;28;20471;-62
2022/10/30 09:02:02;;;;;;;3.38;2.35;;;;;;;19.68;60.17;97346.22;10323172;28;20093;-61
2022/10/30 09:08:00;;;;;;;2.45;2.13;;;;;;;19.70;60.06;97349.44;10312429;28;20064;-62
2022/10/30 09:13:52;;;;;;;29.67;14.73;;;;;;;19.71;60.13;97348.31;10311593;28;20063;-62
2022/10/30 09:19:11;;;;;;;30.83;15.73;;;;;;;19.72;60.66;97342.66;10322565;28;20080;-62
2022/10/30 09:24:32;;;;;;;22.15;10.88;;;;;;;19.74;60.91;97345.84;10337038;28;20062;-62
2022/10/30 09:29:52;;;;;;;20.75;9.60;;;;;;;19.77;60.79;97349.03;10335620;28;20057;-62
2022/10/30 09:35:15;;;;;;;16.20;8.18;;;;;;;19.77;60.50;97344.41;10334756;28;20101;-61
2022/10/30 09:40:45;;;;;;;13.65;7.70;;;;;;;19.79;60.41;97346.81;10337103;28;20064;-61
2022/10/30 09:46:23;;;;;;;13.70;6.50;;;;;;;19.81;60.61;97350.00;10360353;28;20421;-61
2022/10/30 09:51:53;;;;;;;9.68;5.82;;;;;;;19.82;60.51;97352.38;10320498;28;20498;-61
2022/10/30 09:57:23;;;;;;;10.93;5.97;;;;;;;19.83;60.40;97355.88;10320694;28;20406;-61
2022/10/30 10:03:14;;;;;;;10.02;5.88;;;;;;;19.85;60.21;97364.47;10320802;28;20051;-61
2022/10/30 10:09:02;;;;;;;10.50;5.85;;;;;;;19.86;59.98;97366.09;10335137;28;20113;-59
2022/10/30 10:14:44;;;;;;;8.57;5.38;;;;;;;19.87;59.87;97354.16;10322304;28;20084;-61
2022/10/30 10:20:05;;;;;;;10.00;5.50;;;;;;;19.88;59.54;97356.53;10320150;28;20062;-61
2022/10/30 10:25:26;;;;;;;8.20;5.40;;;;;;;19.89;59.52;97344.59;10336122;28;20058;-61
2022/10/30 10:31:02;;;;;;;9.27;5.00;;;;;;;19.92;59.45;97340.50;10332344;28;20137;-62
2022/10/30 10:36:53;;;;;;;10.80;5.10;;;;;;;19.93;59.25;97329.38;10334297;28;20112;-61
2022/10/30 10:42:21;;;;;;;7.18;4.78;;;;;;;19.93;59.22;97315.03;10345221;28;20057;-62
2022/10/30 10:48:23;;;;;;;6.53;5.05;;;;;;;19.95;59.17;97313.63;10359104;28;20116;-61
2022/10/30 10:53:50;;;;;;;7.55;4.95;;;;;;;19.97;59.13;97315.22;10346824;28;20046;-61
2022/10/30 10:59:19;;;;;;;6.53;4.13;;;;;;;19.98;59.17;97314.09;10333619;28;20422;-61
2022/10/30 11:04:41;;;;;;;6.85;4.60;;;;;;;20.00;59.08;97311.88;10332831;28;20069;-62
2022/10/30 11:10:01;;;;;;;5.80;4.20;;;;;;;20.01;59.14;97308.06;10332948;28;20050;-62
2022/10/30 11:15:35;;;;;;;6.93;4.28;;;;;;;20.02;59.03;97306.97;10333176;28;20062;-61
2022/10/30 11:21:14;;;;;;;5.63;4.20;;;;;;;20.02;58.94;97298.84;10337779;28;20054;-61
2022/10/30 11:26:33;;;;;;;;;;;;;;;20.03;58.90;97300.41;10333360;28;20058;-60
2022/10/30 11:32:04;;;;;;;5.07;3.58;;;;;;;20.04;58.86;97299.31;10332936;28;19921;-61
2022/10/30 11:37:30;;;;;;;6.30;4.05;;;;;;;20.05;59.02;97300.91;10345606;28;20491;-61
2022/10/30 11:42:57;;;;;;;5.93;3.90;;;;;;;20.06;58.83;97299.81;10365227;28;20061;-61
2022/10/30 11:48:27;;;;;;;5.20;3.90;;;;;;;20.07;58.91;97304.09;10339078;28;20066;-62
2022/10/30 11:53:48;;;;;;;6.72;4.18;;;;;;;20.07;58.82;97299.50;10333420;28;20058;-61
2022/10/30 11:59:16;;;;;;;6.20;3.90;;;;;;;20.08;58.73;97294.88;10339902;28;20054;-61
2022/10/30 12:04:36;;;;;;;6.80;3.87;;;;;;;20.08;58.69;97290.25;10325100;28;20062;-61
2022/10/30 12:09:58;;;;;;;4.95;3.78;;;;;;;20.10;58.65;97285.31;10339183;28;20062;-60
2022/10/30 12:15:20;;;;;;;6.53;3.90;;;;;;;20.11;58.59;97278.00;10349317;28;20062;-61
2022/10/30 12:20:42;;;;;;;7.10;3.70;;;;;;;20.10;58.61;97271.81;10324139;28;20058;-59
2022/10/30 12:26:10;;;;;;;5.43;3.80;;;;;;;20.11;58.40;97265.28;10339327;28;20085;-61
2022/10/30 12:32:04;;;;;;;6.97;4.05;;;;;;;20.12;58.46;97260.69;10338515;28;20062;-61
2022/10/30 12:37:28;;;;;;;6.75;3.72;;;;;;;20.13;58.54;97259.53;10321389;28;20138;-61
2022/10/30 12:42:55;;;;;;;5.07;3.80;;;;;;;20.14;58.54;97261.94;10357280;28;20061;-62
2022/10/30 12:48:22;;;;;;;6.30;3.72;;;;;;;20.15;58.58;97274.38;10345973;28;20104;-61
2022/10/30 12:53:48;;;;;;;5.05;4.05;;;;;;;20.17;58.60;97265.94;10323463;28;20081;-61
2022/10/30 12:59:16;;;;;;;6.63;3.95;;;;;;;20.17;58.48;97255.13;10337932;28;20064;-62
2022/10/30 13:04:38;;;;;;;4.30;3.47;;;;;;;20.18;58.60;97251.28;10336578;28;20062;-60
2022/10/30 13:10:12;;;;;;;5.65;3.72;;;;;;;20.18;58.52;97248.59;10346795;28;20133;-61
2022/10/30 13:15:42;;;;;;;4.80;3.85;;;;;;;20.19;58.58;97247.47;10321641;28;20054;-61
2022/10/30 13:21:19;;;;;;;5.28;3.60;;;;;;;20.19;58.55;97242.06;10321568;28;20137;-61
2022/10/30 13:26:54;;;;;;;5.10;3.85;;;;;;;20.20;58.39;97240.94;10336663;28;20137;-60
2022/10/30 13:32:23;;;;;;;5.65;3.67;;;;;;;20.21;58.40;97244.44;10334349;28;20054;-62
2022/10/30 13:38:01;;;;;;;5.60;3.83;;;;;;;20.20;58.41;97243.66;10336000;28;20061;-61
2022/10/30 13:43:27;;;;;;;7.37;3.67;;;;;;;20.22;58.25;97240.63;10386347;28;20053;-61
2022/10/30 13:49:02;;;;;;;6.05;4.00;;;;;;;20.22;58.36;97241.41;10338987;28;20058;-60
2022/10/30 13:54:30;;;;;;;5.80;3.88;;;;;;;20.21;58.29;97233.63;10335515;28;20070;-62
2022/10/30 14:00:00;;;;;;;8.13;3.88;;;;;;;20.21;58.36;97234.44;10320784;28;20058;-61
2022/10/30 14:05:30;;;;;;;6.13;4.00;;;;;;;20.22;58.44;97238.72;10320524;28;20066;-61
2022/10/30 14:10:55;;;;;;;6.45;4.28;;;;;;;20.22;58.38;97225.19;10334196;28;20443;-62
2022/10/30 14:16:35;;;;;;;6.53;4.05;;;;;;;20.22;58.39;97230.59;10319747;28;20062;-60
2022/10/30 14:21:55;;;;;;;7.00;4.07;;;;;;;20.23;58.50;97224.09;10346528;28;20050;-61
2022/10/30 14:27:23;;;;;;;6.53;4.35;;;;;;;20.24;58.45;97227.59;10332816;28;20120;-62
2022/10/30 14:32:47;;;;;;;4.90;4.03;;;;;;;20.23;58.59;97220.56;10334537;28;20120;-61
2022/10/30 14:38:07;;;;;;;6.90;4.07;;;;;;;20.23;58.59;97226.78;10333967;28;20062;-61
2022/10/30 14:43:33;;;;;;;6.15;4.50;;;;;;;20.24;58.55;97227.59;10372446;28;20054;-61
2022/10/30 14:49:01;;;;;;;6.82;4.50;;;;;;;20.25;58.58;97227.28;10321541;28;20059;-62
2022/10/30 14:54:22;;;;;;;6.97;4.03;;;;;;;20.26;58.53;97225.34;10331742;28;20193;-60
2022/10/30 14:59:41;;;;;;;6.00;4.15;;;;;;;20.26;58.55;97231.56;10333372;28;20065;-61
2022/10/30 15:05:14;;;;;;;6.70;4.35;;;;;;;20.26;58.55;97231.56;10333190;28;20054;-61
2022/10/30 15:10:35;;;;;;;4.90;3.90;;;;;;;20.26;58.65;97228.84;10332453;28;20061;-61
2022/10/30 15:16:03;;;;;;;9.90;4.50;;;;;;;20.26;58.55;97228.84;10331167;28;20061;-61
2022/10/30 15:21:27;;;;;;;6.70;3.97;;;;;;;20.26;58.52;97223.44;10317726;28;20046;-61
2022/10/30 15:26:52;;;;;;;6.80;4.18;;;;;;;20.27;58.54;97230.44;10344711;28;20418;-61
2022/10/30 15:32:20;;;;;;;5.85;4.38;;;;;;;20.27;58.56;97230.44;10339068;28;20065;-61
2022/10/30 15:37:55;;;;;;;6.50;4.13;;;;;;;20.27;58.50;97233.16;10353662;28;20085;-62
2022/10/30 15:43:16;;;;;;;5.93;4.30;;;;;;;20.27;58.58;97230.44;10377788;28;20293;-60
2022/10/30 15:48:44;;;;;;;7.68;4.63;;;;;;;20.28;58.45;97228.53;10345165;28;20061;-61
2022/10/30 15:54:04;;;;;;;6.70;4.35;;;;;;;20.28;58.52;97234.72;10325575;28;20145;-61
2022/10/30 15:59:27;;;;;;;8.77;4.50;;;;;;;20.28;58.34;97236.66;10339804;28;20117;-62
2022/10/30 16:04:47;;;;;;;5.25;4.47;;;;;;;20.29;58.22;97235.56;10339877;28;20065;-62
2022/10/30 16:10:09;;;;;;;8.82;4.90;;;;;;;20.28;58.27;97232.03;10338848;28;20150;-61
2022/10/30 16:15:28;;;;;;;6.45;4.32;;;;;;;20.28;58.16;97237.44;10339494;28;20065;-62
2022/10/30 16:20:53;;;;;;;8.80;5.07;;;;;;;20.28;58.06;97234.72;10339208;28;20126;-61
2022/10/30 16:26:26;;;;;;;6.38;4.88;;;;;;;20.28;58.02;97231.25;10337264;28;20050;-61
2022/10/30 16:31:48;;;;;;;8.32;5.40;;;;;;;20.28;57.93;97232.03;10351726;28;20482;-61
2022/10/30 16:37:20;;;;;;;7.63;5.47;;;;;;;20.28;57.79;97226.63;10338500;28;20421;-61
2022/10/30 16:42:39;;;;;;;9.43;5.38;;;;;;;20.29;57.74;97236.34;10370429;28;20061;-61
2022/10/30 16:48:01;;;;;;;7.47;5.18;;;;;;;20.28;57.61;97240.16;10347949;28;20054;-61
2022/10/30 16:53:22;;;;;;;7.60;5.97;;;;;;;20.29;57.61;97238.25;10337942;28;20061;-61
2022/10/30 16:58:42;;;;;;;9.65;6.50;;;;;;;20.27;57.53;97235.88;10327177;28;20052;-62
2022/10/30 17:04:03;;;;;;;10.60;6.85;;;;;;;20.29;57.46;97238.25;10350505;28;20418;-61
2022/10/30 17:09:27;;;;;;;10.02;7.70;;;;;;;20.30;57.33;97237.91;10337239;28;20116;-61
2022/10/30 17:14:52;;;;;;;13.00;9.13;;;;;;;20.29;57.19;97236.34;10321835;28;20498;-61
2022/10/30 17:20:18;;;;;;;13.10;9.82;;;;;;;20.31;56.98;97239.53;10336939;28;20062;-61
2022/10/30 17:25:37;;;;;;;12.20;9.77;;;;;;;20.30;56.68;97243.31;10336746;28;20058;-62
2022/10/30 17:31:17;;;;;;;13.43;9.90;;;;;;;20.29;56.57;97252.56;10334792;28;20387;-60
2022/10/30 17:36:36;;;;;;;12.23;8.95;;;;;;;20.31;56.55;97255.75;10336267;28;20082;-61
2022/10/30 17:41:56;;;;;;;11.50;9.20;;;;;;;20.32;56.66;97257.34;10375397;28;20064;-61
2022/10/30 17:47:18;;;;;;;11.77;9.25;;;;;;;20.33;56.64;97258.94;10336732;28;20069;-61
2022/10/30 17:52:37;;;;;;;14.20;10.20;;;;;;;20.33;56.48;97264.34;10334200;28;20050;-61
2022/10/30 17:57:57;;;;;;;12.55;9.85;;;;;;;20.33;56.22;97264.34;10348247;28;20057;-61
2022/10/30 18:03:17;;;;;;;12.00;9.52;;;;;;;20.32;56.09;97265.44;10317106;28;20086;-61
2022/10/30 18:08:37;;;;;;;13.00;10.23;;;;;;;20.34;56.10;97267.84;10334885;28;20058;-60
2022/10/30 18:13:57;;;;;;;12.18;10.55;;;;;;;20.34;55.99;97259.72;10293815;28;20055;-61
2022/10/30 18:19:17;;;;;;;13.02;10.52;;;;;;;20.34;56.03;97271.34;10293959;28;20058;-62
2022/10/30 18:24:36;;;;;;;13.13;10.38;;;;;;;20.35;55.96;97270.25;10294337;28;20101;-61
2022/10/30 18:29:55;;;;;;;13.35;10.48;;;;;;;20.35;55.76;97278.34;10294141;28;20062;-61
2022/10/30 18:35:36;;;;;;;15.27;10.55;;;;;;;20.37;55.89;97280.75;10294431;28;20066;-61
2022/10/30 18:40:55;;;;;;;15.10;10.90;;;;;;;20.38;56.05;97284.25;10311961;28;20050;-62
2022/10/30 18:46:15;;;;;;;13.52;10.27;;;;;;;20.38;56.06;97282.31;10317379;28;20059;-61
2022/10/30 18:51:37;;;;;;;13.05;10.45;;;;;;;20.39;55.65;97283.16;10293257;28;20458;-62
2022/10/30 18:56:56;;;;;;;12.27;10.18;;;;;;;20.39;55.64;97277.75;10293386;28;20073;-61
2022/10/30 19:02:20;;;;;;;12.68;9.93;;;;;;;20.40;55.64;97279.31;10305565;28;20050;-60
2022/10/30 19:07:39;;;;;;;15.00;10.32;;;;;;;20.41;55.35;97275.50;10278522;28;20089;-61
2022/10/30 19:13:07;;;;;;;12.38;9.88;;;;;;;20.41;55.14;97270.09;10325617;28;20054;-61
2022/10/30 19:18:27;;;;;;;13.57;10.07;;;;;;;20.41;54.94;97275.50;10345871;28;20598;-62
2022/10/30 19:23:47;;;;;;;13.80;9.70;;;;;;;20.42;55.04;97268.97;10332920;28;20058;-61
2022/10/30 19:29:06;;;;;;;13.30;9.38;;;;;;;20.42;54.74;97272.47;10332834;28;20062;-60
2022/10/30 19:34:26;;;;;;;11.73;9.07;;;;;;;20.42;54.58;97271.66;10332577;28;20054;-61
2022/10/30 19:39:45;;;;;;;13.80;9.85;;;;;;;20.42;54.58;97272.47;10322129;28;20068;-61
2022/10/30 19:45:04;;;;;;;11.98;9.20;;;;;;;20.43;54.44;97275.97;10351551;28;20066;-61
2022/10/30 19:50:32;;;;;;;12.68;9.27;;;;;;;20.43;54.34;97265.16;10307184;28;20054;-61
2022/10/30 19:55:51;;;;;;;15.23;9.40;;;;;;;20.44;54.18;97275.63;10358191;28;20068;-61
2022/10/30 20:01:11;;;;;;;12.65;9.55;;;;;;;20.44;53.83;97269.44;10369924;28;20078;-61
2022/10/30 20:06:31;;;;;;;13.15;9.45;;;;;;;20.44;53.95;97275.63;10372186;28;20058;-61
2022/10/30 20:11:51;;;;;;;13.38;9.57;;;;;;;20.44;53.82;97278.34;10374117;28;20556;-61
2022/10/30 20:17:10;;;;;;;12.07;9.15;;;;;;;20.44;54.05;97275.63;10374178;28;20513;-62
2022/10/30 20:22:30;;;;;;;11.52;10.15;;;;;;;20.46;53.86;97278.81;10379969;28;20053;-61
2022/10/30 20:27:50;;;;;;;12.40;10.15;;;;;;;20.48;53.57;97283.94;10379121;28;20054;-61
2022/10/30 20:33:12;;;;;;;13.30;9.65;;;;;;;20.48;53.58;97281.22;10364062;28;20064;-61
2022/10/30 20:38:32;;;;;;;13.75;10.30;;;;;;;20.48;53.36;97281.22;10379344;28;20111;-61
2022/10/30 20:43:52;;;;;;;12.07;10.02;;;;;;;20.49;53.47;97285.53;10379063;28;20120;-61
2022/10/30 20:49:11;;;;;;;13.57;10.13;;;;;;;20.50;53.37;97284.41;10377273;28;20080;-61
2022/10/30 20:54:30;;;;;;;12.70;9.85;;;;;;;20.50;53.29;97285.22;10338140;28;20081;-61
2022/10/30 20:59:50;;;;;;;12.30;10.25;;;;;;;20.51;53.11;97284.09;10350937;28;20054;-61
2022/10/30 21:05:10;;;;;;;13.80;9.70;;;;;;;20.51;52.98;97286.00;10350663;28;20089;-62
2022/10/30 21:10:31;;;;;;;11.93;10.23;;;;;;;20.51;52.93;97281.38;10336750;28;20506;-61
2022/10/30 21:15:50;;;;;;;14.27;9.88;;;;;;;20.52;52.91;97284.88;10337441;28;20058;-61
2022/10/30 21:21:12;;;;;;;12.20;9.82;;;;;;;20.52;52.79;97277.56;10336554;28;20050;-62
2022/10/30 21:26:33;;;;;;;13.85;10.15;;;;;;;20.52;52.67;97280.28;10336010;28;20062;-62
2022/10/30 21:31:53;;;;;;;12.75;10.15;;;;;;;20.52;52.63;97272.16;10336111;28;20494;-61
2022/10/30 21:37:13;;;;;;;12.10;9.98;;;;;;;20.52;52.51;97279.47;10336481;28;20058;-61
2022/10/30 21:42:32;;;;;;;12.45;10.13;;;;;;;20.52;52.43;97274.06;10349228;28;20066;-62
2022/10/30 21:47:52;;;;;;;14.70;10.70;;;;;;;20.51;52.24;97280.59;10336004;28;20436;-61
2022/10/30 21:53:11;;;;;;;12.35;10.30;;;;;;;20.50;52.21;97274.41;10364192;28;20060;-61
2022/10/30 21:58:30;;;;;;;14.27;11.25;;;;;;;20.50;52.22;97274.41;10376278;28;20456;-61
2022/10/30 22:03:50;;;;;;;12.95;10.73;;;;;;;20.49;52.21;97278.19;10376114;28;20058;-61
2022/10/30 22:09:13;;;;;;;15.32;10.88;;;;;;;20.47;52.16;97277.72;10375642;28;20144;-62
2022/10/30 22:14:32;;;;;;;13.57;10.88;;;;;;;20.47;52.01;97279.66;10374937;28;20054;-61
2022/10/30 22:19:51;;;;;;;13.55;11.38;;;;;;;20.45;51.93;97276.47;10388426;28;20045;-60
2022/10/30 22:25:11;;;;;;;14.45;10.70;;;;;;;20.45;51.80;97262.94;10375280;28;20133;-61
2022/10/30 22:30:31;;;;;;;14.93;11.80;;;;;;;20.44;51.75;97266.72;10375027;28;20073;-60
2022/10/30 22:35:50;;;;;;;13.60;11.25;;;;;;;20.42;51.64;97267.03;10374944;28;20057;-61
2022/10/30 22:41:15;;;;;;;14.55;11.43;;;;;;;20.41;51.86;97265.47;10373962;28;20060;-61
2022/10/30 22:46:35;;;;;;;14.13;11.48;;;;;;;20.40;51.75;97274.69;10293798;28;20069;-61
2022/10/30 22:51:54;;;;;;;14.52;11.65;;;;;;;20.41;51.66;97270.09;10337179;28;20054;-61
2022/10/30 22:57:14;;;;;;;13.43;11.13;;;;;;;20.40;51.64;97273.91;10387141;28;20107;-60
2022/10/30 23:02:33;;;;;;;13.95;11.55;;;;;;;20.37;51.84;97261.03;10373992;28;20116;-61
2022/10/30 23:07:52;;;;;;;13.63;11.38;;;;;;;20.38;51.61;97265.31;10386904;28;20060;-61
2022/10/30 23:13:11;;;;;;;14.05;11.52;;;;;;;20.37;51.74;97269.13;10373040;28;20054;-61
2022/10/30 23:18:31;;;;;;;13.40;11.15;;;;;;;20.34;51.78;97268.63;10386704;28;20065;-61
2022/10/30 23:23:51;;;;;;;14.63;11.77;;;;;;;20.34;51.91;97267.84;10373562;28;20403;-61
2022/10/30 23:29:10;;;;;;;13.73;10.80;;;;;;;20.34;51.75;97274.03;10373427;28;20112;-62
2022/10/30 23:34:30;;;;;;;17.05;11.82;;;;;;;20.32;51.56;97276.28;10373396;28;20064;-60
2022/10/30 23:39:49;;;;;;;12.95;11.50;;;;;;;20.30;51.38;97273.09;10356622;28;20054;-62
2022/10/30 23:45:08;;;;;;;15.05;11.65;;;;;;;20.27;51.50;97268.34;10331860;28;20058;-61
2022/10/30 23:50:27;;;;;;;16.85;11.77;;;;;;;20.25;51.36;97270.56;10341494;28;20061;-61
2022/10/30 23:55:51;;;;;;;14.18;11.23;;;;;;;20.26;51.60;97279.47;10381108;28;20066;-61
